Latest Weather Observations for Barrow Island

IDW60801

Issued at 3:03 pm WST Sunday 31 July 2016 (issued every 30 minutes, with the page automatically refreshed every 10 minutes)

About weather observations | Map of weather stations | Latest weather observations for WA | Other Formats
Station Details ID: 005094 Name: BARROW ISLAND AIRPORT Lat: -20.87 Lon: 115.41 Height: 6.4 m
Data from the previous 72 hours. | See also: Recent months at Barrow Island
Date/Time
WST
Temp
°C
App
Temp
°C
Dew
Point
°C
Rel
Hum
%
Delta-T
°C
Wind Press
QNH
hPa
Press
MSL
hPa
Rain since
9am
mm
Dir  Spd
km/h
Gust
km/h
Spd
kts
Gust
kts
31/03:00pm 24.7 21.0 16.9 62 4.8 SW 32 37 17 20 1014.9 1014.9 0.0
31/02:30pm 24.6 21.0 17.1 63 4.6 SW 32 37 17 20 1015.1 - 0.0
31/02:00pm 24.4 21.0 17.6 66 4.2 SSW 32 35 17 19 1015.4 - 0.0
31/01:30pm 23.9 20.5 16.7 64 4.4 SSW 30 33 16 18 1015.7 - 0.0
31/01:00pm 23.6 19.8 16.6 65 4.3 SSW 32 39 17 21 1016.2 - 0.0
31/12:30pm 23.4 19.2 17.2 68 3.8 SSW 35 41 19 22 1016.6 - 0.0
31/12:00pm 23.4 19.8 17.6 70 3.6 SSW 33 41 18 22 1017.2 1017.2 0.0
31/11:30am 23.0 18.1 17.2 70 3.6 S 39 46 21 25 1017.6 - 0.0
31/11:00am 22.5 17.5 17.0 71 3.4 S 39 44 21 24 1017.7 - 0.0
31/10:30am 22.0 17.2 16.7 72 3.2 S 37 43 20 23 1017.9 - 0.0
31/10:00am 22.0 17.1 17.4 75 2.8 S 39 43 21 23 1018.0 - 0.0
31/09:30am 21.7 17.1 17.1 75 2.8 S 37 43 20 23 1018.0 - 0.0
31/09:00am 21.6 17.4 17.2 76 2.7 S 35 43 19 23 1017.7 1017.7 0.0
31/08:30am 21.3 16.4 17.3 78 2.5 S 39 44 21 24 1017.3 - 0.0
31/08:00am 21.3 16.8 17.3 78 2.5 S 37 44 20 24 1017.0 - 0.0
31/07:30am 21.2 16.4 17.6 80 2.2 S 39 44 21 24 1016.4 - 0.0
31/07:00am 21.2 16.9 17.8 81 2.1 S 37 43 20 23 1016.1 - 0.0
31/06:30am 21.2 17.3 17.8 81 2.1 S 35 41 19 22 1015.8 - 0.0
31/06:00am 21.3 17.3 17.7 80 2.2 S 35 43 19 23 1015.5 1015.5 0.0
31/05:30am 21.4 17.9 17.8 80 2.2 S 33 39 18 21 1015.4 - 0.0
31/05:00am 21.5 17.6 17.9 80 2.2 S 35 41 19 22 1015.3 - 0.0
31/04:30am 21.6 18.2 18.2 81 2.1 S 33 39 18 21 1015.4 - 0.0
31/04:00am 21.7 18.6 18.3 81 2.1 S 32 37 17 20 1015.4 - 0.0
31/03:30am 21.7 18.6 18.3 81 2.1 S 32 39 17 21 1015.6 - 0.0
31/03:00am 21.8 18.9 18.8 83 1.9 S 32 35 17 19 1015.9 1015.9 0.0
31/02:30am 21.9 19.4 18.9 83 1.9 S 30 35 16 19 1016.3 - 0.0
31/02:00am 21.9 19.4 18.9 83 1.9 S 30 37 16 20 1016.4 - 0.0
31/01:30am 22.3 20.7 19.1 82 2.0 SSW 26 32 14 17 1016.8 - 0.0
31/01:00am 22.3 21.3 19.7 85 1.7 SSW 24 28 13 15 1017.1 - 0.0
31/12:30am 22.5 21.9 20.6 89 1.2 SSW 24 30 13 16 1017.2 - 0.0
31/12:00am 20.6 21.3 18.9 90 1.1 SSW 13 15 7 8 1017.4 1017.4 0.0
 
Date/Time
WST
Temp
°C
App
Temp
°C
Dew
Point
°C
Rel
Hum
%
Delta-T
°C
Wind Press
QNH
hPa
Press
MSL
hPa
Rain since
9am
mm
Dir  Spd
km/h
Gust
km/h
Spd
kts
Gust
kts
30/11:30pm 19.8 20.1 17.8 88 1.2 SW 13 13 7 7 1017.4 - 0.0
30/11:00pm 18.8 18.9 16.4 86 1.4 SW 11 11 6 6 1017.3 - 0.0
30/10:30pm 18.4 18.5 15.5 83 1.7 SW 9 11 5 6 1017.3 - 0.0
30/10:00pm 18.5 18.4 15.0 80 2.0 SW 9 11 5 6 1017.4 - 0.0
30/09:30pm 18.7 17.9 14.0 74 2.7 WSW 11 13 6 7 1017.5 - 0.0
30/09:00pm 19.3 18.1 13.9 71 3.1 WSW 13 13 7 7 1017.4 1017.4 0.0
30/08:30pm 19.5 17.9 13.9 70 3.2 W 15 17 8 9 1017.1 - 0.0
30/08:00pm 19.4 17.5 12.9 66 3.7 W 15 17 8 9 1016.9 - 0.0
30/07:30pm 19.6 17.4 12.1 62 4.2 W 15 17 8 9 1016.5 - 0.0
30/07:00pm 19.9 17.8 11.1 57 4.8 W 13 15 7 8 1016.1 - 0.0
30/06:30pm 21.3 19.6 11.3 53 5.5 W 11 13 6 7 1015.8 - 0.0
30/06:00pm 23.2 21.0 7.7 37 8.1 N 9 9 5 5 1015.5 1015.5 0.0
30/05:30pm 25.1 24.5 9.0 36 8.7 NE 2 9 1 5 1015.1 - 0.0
30/05:00pm 24.7 24.8 13.9 51 6.4 ENE 6 7 3 4 1015.0 - 0.0
30/04:30pm 24.3 24.5 14.7 55 5.7 SE 7 9 4 5 1014.9 - 0.0
30/04:00pm 24.7 24.3 13.0 48 6.8 SSE 7 9 4 5 1014.9 - 0.0
30/03:30pm 25.3 25.1 14.7 51 6.3 S 9 11 5 6 1015.0 - 0.0
30/03:00pm 24.9 24.9 14.1 51 6.4 SE 7 9 4 5 1015.1 1015.1 0.0
30/02:30pm 25.2 24.5 13.1 47 7.0 SE 9 11 5 6 1015.2 - 0.0
30/02:00pm 24.9 24.8 15.0 54 5.9 ESE 9 9 5 5 1015.4 - 0.0
30/01:30pm 24.4 24.4 15.1 56 5.6 E 9 11 5 6 1015.5 - 0.0
30/01:00pm 23.8 23.2 14.5 56 5.5 E 11 13 6 7 1015.9 - 0.0
30/12:30pm 24.4 23.9 14.8 55 5.7 E 11 13 6 7 1016.5 - 0.0
30/12:00pm 23.9 23.2 15.4 59 5.1 ESE 13 15 7 8 1016.9 1016.9 0.0
30/11:30am 23.6 22.8 15.1 59 5.1 ESE 13 15 7 8 1017.3 - 0.0
30/11:00am 24.3 24.3 16.3 61 4.9 SE 11 13 6 7 1017.7 - 0.0
30/10:30am 24.1 23.3 16.1 61 4.9 SE 15 17 8 9 1017.9 - 0.0
30/10:00am 23.9 23.1 17.2 66 4.1 SSE 17 20 9 11 1018.0 - 0.0
30/09:30am 23.6 22.4 16.1 62 4.6 SSE 17 20 9 11 1018.1 - 0.0
30/09:00am 23.2 21.6 16.0 64 4.3 SSE 19 22 10 12 1017.9 1017.9 0.0
30/08:30am 22.7 21.1 16.0 66 4.0 SSE 19 22 10 12 1017.8 - 0.0
30/08:00am 22.2 19.7 14.1 60 4.7 SSE 20 24 11 13 1017.8 - 0.0
30/07:30am 21.4 18.6 13.3 60 4.6 SSE 20 22 11 12 1017.5 - 0.0
30/07:00am 21.0 18.1 12.9 60 4.6 SSE 20 24 11 13 1017.1 - 0.0
30/06:30am 21.0 18.3 13.4 62 4.4 SSE 20 24 11 13 1016.9 - 0.0
30/06:00am 20.8 18.3 14.2 66 3.8 SSE 20 22 11 12 1016.7 1016.7 0.0
30/05:30am 20.8 18.0 14.2 66 3.8 SSE 22 24 12 13 1016.7 - 0.0
30/05:00am 20.9 18.2 15.7 72 3.1 S 24 28 13 15 1016.7 - 0.0
30/04:30am 20.7 18.9 16.1 75 2.8 S 20 26 11 14 1016.7 - 0.0
30/04:00am 20.9 19.2 16.3 75 2.8 S 20 24 11 13 1016.7 - 0.0
30/03:30am 20.8 19.5 16.8 78 2.4 S 19 22 10 12 1016.9 - 0.0
30/03:00am 21.1 19.8 17.3 79 2.3 S 20 24 11 13 1017.0 1017.0 0.0
30/02:30am 21.2 20.0 17.4 79 2.3 S 20 22 11 12 1017.2 - 0.0
30/02:00am 21.3 20.7 17.5 79 2.3 S 17 19 9 10 1017.6 - 0.0
30/01:30am 21.3 20.5 17.1 77 2.6 S 17 19 9 10 1017.8 - 0.0
30/01:00am 21.0 21.0 17.2 79 2.3 SSE 13 17 7 9 1017.9 - 0.0
30/12:30am 20.7 20.7 17.1 80 2.2 S 13 15 7 8 1018.1 - 0.0
30/12:00am 19.4 19.7 16.1 81 2.0 S 9 9 5 5 1018.3 1018.3 0.0
 
Date/Time
WST
Temp
°C
App
Temp
°C
Dew
Point
°C
Rel
Hum
%
Delta-T
°C
Wind Press
QNH
hPa
Press
MSL
hPa
Rain since
9am
mm
Dir  Spd
km/h
Gust
km/h
Spd
kts
Gust
kts
29/11:30pm 18.7 19.0 14.6 77 2.4 SSW 6 7 3 4 1018.5 - 0.0
29/11:00pm 19.6 19.8 14.6 73 2.9 SSW 7 7 4 4 1018.5 - 0.0
29/10:30pm 20.1 19.6 12.6 62 4.2 SW 7 9 4 5 1018.5 - 0.0
29/10:00pm 19.0 18.3 12.0 64 3.9 WSW 7 9 4 5 1018.5 - 0.0
29/09:30pm 18.8 18.1 11.9 64 3.8 W 7 9 4 5 1018.5 - 0.0
29/09:00pm 18.7 18.1 12.2 66 3.6 WNW 7 7 4 4 1018.3 1018.3 0.0
29/08:30pm 18.6 17.7 11.2 62 4.0 NNW 7 9 4 5 1018.0 - 0.0
29/08:00pm 19.1 18.3 11.2 60 4.3 NNW 6 7 3 4 1017.8 - 0.0
29/07:30pm 19.6 17.9 11.1 58 4.6 N 11 13 6 7 1017.7 - 0.0
29/07:00pm 20.5 18.3 10.9 54 5.3 N 13 13 7 7 1017.3 - 0.0
29/06:30pm 21.7 19.3 9.9 47 6.4 N 13 13 7 7 1016.9 - 0.0
29/06:00pm 23.1 21.5 12.7 52 5.9 NNE 13 15 7 8 1016.6 1016.6 0.0
29/05:30pm 24.3 21.5 11.3 44 7.3 NNE 17 20 9 11 1016.5 - 0.0
29/05:00pm 24.7 21.1 10.6 41 7.8 NNE 20 24 11 13 1016.5 - 0.0
29/04:30pm 24.5 22.2 14.0 52 6.2 NE 19 22 10 12 1016.5 - 0.0
29/04:00pm 24.4 21.3 13.3 50 6.5 NE 22 24 12 13 1016.5 - 0.0
29/03:30pm 24.7 21.9 14.2 52 6.2 NE 22 24 12 13 1016.6 - 0.0
29/03:00pm 24.8 21.8 13.7 50 6.5 NE 22 24 12 13 1016.6 1016.6 0.0
29/02:30pm 25.1 22.1 13.6 49 6.7 NE 22 26 12 14 1016.7 - 0.0
29/02:00pm 24.9 21.2 13.8 50 6.5 NE 26 30 14 16 1016.8 - 0.0
29/01:30pm 24.7 20.8 13.3 49 6.6 NE 26 30 14 16 1017.1 - 0.0
29/01:00pm 24.8 20.9 13.4 49 6.7 NE 26 30 14 16 1017.5 - 0.0
29/12:30pm 24.3 20.3 12.9 49 6.6 ENE 26 30 14 16 1018.0 - 0.0
29/12:00pm 24.5 21.1 13.7 51 6.3 ENE 24 28 13 15 1018.5 1018.5 0.0
29/11:30am 24.6 21.4 13.2 49 6.6 ENE 22 28 12 15 1018.8 - 0.0
29/11:00am 24.5 21.6 14.0 52 6.2 ENE 22 28 12 15 1019.1 - 0.0
29/10:30am 24.1 22.7 15.6 59 5.1 E 17 20 9 11 1019.1 - 0.0
29/10:00am 23.7 22.0 15.7 61 4.8 E 19 20 10 11 1019.2 - 0.0
29/09:30am 23.5 22.4 16.3 64 4.4 E 17 20 9 11 1019.2 - 0.0
29/09:00am 23.3 22.3 16.6 66 4.1 E 17 20 9 11 1019.2 1019.2 0.0
29/08:30am 22.9 21.9 16.7 68 3.8 E 17 20 9 11 1018.9 - 0.0
29/08:00am 22.4 21.2 16.0 67 3.9 E 17 20 9 11 1018.7 - 0.0
29/07:30am 21.8 20.6 16.1 70 3.4 E 17 19 9 10 1018.3 - 0.0
29/07:00am 21.1 19.2 15.2 69 3.5 E 19 22 10 12 1018.1 - 0.0
29/06:30am 21.1 19.1 15.6 71 3.3 E 20 24 11 13 1017.8 - 0.0
29/06:00am 20.7 18.8 15.3 71 3.2 ESE 19 20 10 11 1017.3 1017.3 0.0
29/05:30am 20.5 19.5 16.5 78 2.4 ESE 17 20 9 11 1017.1 - 0.0
29/05:00am 20.2 19.4 18.0 87 1.4 SE 19 20 10 11 1016.9 - 0.0
29/04:30am 20.5 20.8 18.8 90 1.1 ESE 15 17 8 9 1016.8 - 0.0
29/04:00am 20.5 21.3 19.0 91 0.9 ESE 13 15 7 8 1016.7 - 0.0
29/03:30am 20.2 22.2 18.7 91 0.9 E 6 7 3 4 1016.6 - 0.0
29/03:00am 19.3 21.9 17.6 90 1.0 CALM 0 0 0 0 1016.6 1016.6 0.0
29/02:30am 19.0 21.5 17.3 90 1.0 CALM 0 0 0 0 1016.8 - 0.0
29/02:00am 19.0 21.4 17.1 89 1.2 CALM 0 0 0 0 1017.1 - 0.0
29/01:30am 19.1 21.5 17.1 88 1.2 CALM 0 0 0 0 1017.3 - 0.0
29/01:00am 19.3 20.7 17.3 88 1.2 NNE 6 7 3 4 1017.5 - 0.0
29/12:30am 19.5 20.7 17.3 87 1.3 NNE 7 7 4 4 1017.6 - 0.0
29/12:00am 19.3 19.9 16.9 86 1.4 NNE 9 11 5 6 1017.7 1017.7 0.0
 
Date/Time
WST
Temp
°C
App
Temp
°C
Dew
Point
°C
Rel
Hum
%
Delta-T
°C
Wind Press
QNH
hPa
Press
MSL
hPa
Rain since
9am
mm
Dir  Spd
km/h
Gust
km/h
Spd
kts
Gust
kts
28/11:30pm 20.8 21.6 18.2 85 1.6 NE 11 13 6 7 1017.9 - 0.0
28/11:00pm 21.4 22.0 18.6 84 1.8 NE 13 15 7 8 1018.0 - 0.0
28/10:30pm 21.7 22.1 18.9 84 1.8 NE 15 19 8 10 1018.0 - 0.0
28/10:00pm 21.8 22.3 19.2 85 1.6 NE 15 17 8 9 1018.1 - 0.0
28/09:30pm 22.1 21.9 19.3 84 1.8 ENE 19 20 10 11 1018.2 - 0.0
28/09:00pm 22.2 21.9 19.2 83 1.9 ENE 19 20 10 11 1018.4 1018.4 0.0
28/08:30pm 22.3 21.9 19.3 83 1.9 ENE 20 24 11 13 1018.2 - 0.0
28/08:00pm 22.3 21.9 19.3 83 1.9 ENE 20 22 11 12 1018.1 - 0.0
28/07:30pm 22.3 21.8 19.1 82 2.0 ENE 20 24 11 13 1017.8 - 0.0
28/07:00pm 22.3 21.7 18.9 81 2.1 ENE 20 22 11 12 1017.7 - 0.0
28/06:30pm 22.3 21.2 18.7 80 2.3 ENE 22 24 12 13 1017.3 - 0.0
28/06:00pm 22.4 21.6 18.4 78 2.5 ENE 20 22 11 12 1017.2 1017.2 0.0
28/05:30pm 22.8 21.9 18.3 76 2.8 ENE 20 22 11 12 1017.1 - 0.0
28/05:00pm 23.1 21.7 18.0 73 3.2 ENE 22 26 12 14 1017.0 - 0.0
28/04:30pm 23.4 21.6 17.8 71 3.5 ENE 24 26 13 14 1016.8 - 0.0
28/04:00pm 23.7 21.4 17.7 69 3.7 ENE 26 30 14 16 1016.6 - 0.0
28/03:30pm 23.7 20.5 17.2 67 4.0 ENE 30 35 16 19 1016.4 - 0.0

Other Formats:

Comma delimited format used in spreadsheet applications
http://www.bom.gov.au/fwo/IDW60801/IDW60801.95304.axf

JavaScript Object Notation format (JSON) in row-major order
http://www.bom.gov.au/fwo/IDW60801/IDW60801.95304.json